Ana Sayfa
METAR-TAF:

METAR-TAF

Havaalanları :

Maputo, Mozambik

Maputo Uluslararası Havalimanı

Enlem: 25-55S, Boylam: 032-34E, yükseklik: 39 m

Güncel hava durumu gözlemi

Rapor saat 02:00 UTC de 13 dakika önce yapıldı.
Rüzgar kuzeydan 3 kt
Sıcaklık 18°C
Nem 88%
Basınç 1017 hPa
Görüş mesafesi 10 km veya daha fazla
1500 m altında bulut yok ve kümülonimbus yok

METAR: FQMA 260200Z 36003KT CAVOK 18/16 Q1017 NOSIG

Saat: 04:13 (02:13 UTC)


TAF: eksik

4.000'den fazla havaalanı için hava durumu gözlemleri ve tahminleri (METAR ve TAF raporları).

Kullanılabilir istasyonlar harita üzerinde sarı ve kırmızı noktalarla gösterilir.

İstasyonun adını görmek için fareyi noktanın üzerinde gezdirin.

Sonrasında hava gözlem ve tahminlerini görmek için tıklayın.

Haritayı değiştirmek için: yaklaştırmak için siyah artı işaretli yeşil düğmeye ve uzaklaştırmak için de eksi işaretli düğmeye hızla tıklayın; bitişik haritalar için yeşil okları kullanın.


METAR-TAF: